Time;durP1;ratioP1;P1;durP2;ratioP2;P2;SDS_P1;SDS_P2;PMS_P1;PMS_P2;Temp;Humidity;BMP_temperature;BMP_pressure;BME280_temperature;BME280_humidity;BME280_pressure;Samples;Min_cycle;Max_cycle;Signal;HPM_P1;HPM_P2
2021/08/10 00:00:11;;;;;;;5.38;1.50;;;21.00;93.00;;;;;;5077371;28;20445;-85
2021/08/10 00:02:41;;;;;;;3.70;1.35;;;20.30;94.80;;;;;;5096275;28;20390;-85
2021/08/10 00:05:09;;;;;;;3.28;1.02;;;19.50;95.80;;;;;;5068471;28;20425;-84
2021/08/10 00:07:36;;;;;;;6.25;1.58;;;18.90;97.20;;;;;;5068119;28;20412;-84
2021/08/10 00:10:05;;;;;;;4.35;1.40;;;18.10;98.60;;;;;;5073791;28;20393;-85
2021/08/10 00:12:36;;;;;;;4.05;1.20;;;17.60;99.80;;;;;;5074889;28;20888;-84
2021/08/10 00:15:07;;;;;;;6.22;1.50;;;17.30;99.90;;;;;;5076532;28;20404;-84
2021/08/10 00:17:34;;;;;;;4.22;1.42;;;17.10;99.90;;;;;;5069717;28;20404;-83
2021/08/10 00:20:01;;;;;;;4.13;1.23;;;16.90;99.90;;;;;;5064090;28;20500;-84
2021/08/10 00:22:32;;;;;;;4.05;1.20;;;16.90;99.90;;;;;;5097504;28;20394;-83
2021/08/10 00:25:02;;;;;;;6.22;1.38;;;16.90;99.90;;;;;;5071006;28;20406;-82
2021/08/10 00:27:29;;;;;;;4.00;1.10;;;16.90;99.90;;;;;;5054276;28;20451;-83
2021/08/10 00:29:56;;;;;;;4.65;1.20;;;17.00;99.90;;;;;;5071845;28;20434;-83
2021/08/10 00:32:23;;;;;;;3.25;1.08;;;16.90;99.90;;;;;;5070776;28;20425;-83
2021/08/10 00:34:53;;;;;;;5.35;1.35;;;17.00;99.90;;;;;;5080374;28;20480;-83
2021/08/10 00:37:21;;;;;;;2.63;1.05;;;16.90;99.90;;;;;;5070785;28;20386;-84
2021/08/10 00:39:48;;;;;;;11.98;1.30;;;17.00;99.90;;;;;;5067718;28;20910;-84
2021/08/10 00:42:15;;;;;;;4.33;1.30;;;17.10;99.90;;;;;;5070158;28;20394;-85
2021/08/10 00:44:42;;;;;;;5.00;1.35;;;17.10;99.90;;;;;;5064296;28;20445;-84
2021/08/10 00:47:09;;;;;;;5.38;1.40;;;17.10;99.90;;;;;;5064794;28;20853;-84
2021/08/10 00:49:36;;;;;;;6.72;1.48;;;17.20;99.90;;;;;;5069719;28;20409;-86
2021/08/10 00:52:04;;;;;;;4.95;1.30;;;17.20;99.90;;;;;;5106627;28;20397;-84
2021/08/10 00:54:40;;;;;;;11.48;1.65;;;17.30;99.90;;;;;;5070493;28;20904;-84
2021/08/10 00:57:08;;;;;;;4.95;1.30;;;17.30;99.90;;;;;;5074742;28;20408;-83
2021/08/10 00:59:37;;;;;;;5.80;1.15;;;17.30;99.90;;;;;;5067879;28;20413;-84
2021/08/10 01:02:06;;;;;;;4.45;1.15;;;17.30;99.90;;;;;;5071519;28;20390;-85
2021/08/10 01:04:38;;;;;;;4.30;1.50;;;17.40;99.90;;;;;;5052645;28;20851;-84
2021/08/10 01:07:30;;;;;;;4.65;1.45;;;17.50;99.90;;;;;;5070538;28;20473;-85
2021/08/10 01:10:16;;;;;;;3.17;1.40;;;17.60;99.90;;;;;;5067960;28;20760;-85
2021/08/10 01:13:13;;;;;;;3.27;1.00;;;17.60;99.90;;;;;;5073858;28;20378;-85
2021/08/10 01:16:10;;;;;;;4.70;1.20;;;17.70;99.90;;;;;;5077581;28;22316;-84
2021/08/10 01:18:57;;;;;;;4.22;1.10;;;17.90;99.90;;;;;;5067367;28;20525;-84
2021/08/10 01:21:28;;;;;;;4.25;1.27;;;17.90;99.90;;;;;;5080957;28;20916;-84
2021/08/10 01:24:29;;;;;;;5.53;1.40;;;18.00;99.90;;;;;;5084188;28;20484;-85
2021/08/10 01:27:14;;;;;;;3.65;1.40;;;18.10;98.80;;;;;;5075879;28;20400;-85
2021/08/10 01:29:53;;;;;;;4.53;1.40;;;18.10;99.80;;;;;;5076492;28;20507;-85
2021/08/10 01:32:24;;;;;;;4.38;1.55;;;18.00;99.80;;;;;;5078896;28;20396;-85
2021/08/10 01:35:13;;;;;;;6.07;1.83;;;18.10;99.10;;;;;;5080359;28;20389;-84
2021/08/10 01:37:55;;;;;;;5.45;1.52;;;18.10;99.00;;;;;;5066932;28;20415;-85
2021/08/10 01:40:26;;;;;;;9.80;1.65;;;18.20;98.70;;;;;;5084899;28;20409;-83
2021/08/10 01:43:03;;;;;;;4.10;1.40;;;18.30;98.60;;;;;;5081638;28;20402;-84
2021/08/10 01:45:37;;;;;;;4.68;1.33;;;18.30;98.00;;;;;;5083335;28;20394;-84
2021/08/10 01:48:11;;;;;;;3.50;1.20;;;18.30;98.30;;;;;;5075104;28;20398;-83
2021/08/10 01:50:43;;;;;;;4.18;1.33;;;18.40;97.50;;;;;;5075995;28;20386;-83
2021/08/10 01:53:14;;;;;;;3.38;1.50;;;18.50;97.80;;;;;;5073327;28;20386;-83
2021/08/10 01:55:42;;;;;;;3.80;1.00;;;18.50;98.60;;;;;;5081943;28;20905;-83
2021/08/10 01:58:11;;;;;;;6.18;1.33;;;18.50;97.00;;;;;;5083371;28;20390;-82
2021/08/10 02:00:41;;;;;;;4.30;1.27;;;18.50;96.70;;;;;;5074470;28;20426;-82
2021/08/10 02:03:14;;;;;;;4.97;1.38;;;18.50;97.70;;;;;;5070279;28;20405;-83
2021/08/10 02:05:46;;;;;;;5.13;1.20;;;18.50;96.00;;;;;;5087601;28;20475;-83
2021/08/10 02:08:14;;;;;;;3.70;1.60;;;18.50;97.70;;;;;;5120298;27;20385;-82
2021/08/10 02:10:44;;;;;;;3.58;1.20;;;18.50;97.60;;;;;;5086998;28;20401;-82
2021/08/10 02:13:13;;;;;;;6.10;1.42;;;18.60;96.90;;;;;;5075990;28;22346;-81
2021/08/10 02:15:44;;;;;;;4.53;1.15;;;18.80;96.20;;;;;;5069732;28;20731;-82
2021/08/10 02:18:12;;;;;;;4.90;1.30;;;18.90;96.30;;;;;;5074439;28;20382;-82
2021/08/10 02:20:46;;;;;;;3.65;1.30;;;18.90;95.50;;;;;;5069597;28;20406;-85
2021/08/10 02:23:15;;;;;;;7.55;1.35;;;18.90;96.00;;;;;;5068244;28;20396;-83
2021/08/10 02:25:46;;;;;;;4.45;1.20;;;18.90;96.50;;;;;;5069741;28;20415;-84
2021/08/10 02:28:16;;;;;;;3.33;1.20;;;19.00;96.10;;;;;;5071868;28;20387;-83
2021/08/10 02:30:53;;;;;;;5.65;1.30;;;19.00;95.40;;;;;;5071636;28;20402;-83
2021/08/10 02:33:23;;;;;;;5.90;1.20;;;19.00;96.00;;;;;;5068061;28;20403;-84
2021/08/10 02:35:53;;;;;;;3.67;0.93;;;19.10;95.20;;;;;;5064225;28;20874;-84
2021/08/10 02:38:22;;;;;;;4.75;1.40;;;19.10;94.60;;;;;;5067714;28;20398;-84
2021/08/10 02:40:50;;;;;;;4.38;1.25;;;19.10;94.90;;;;;;5068044;28;20758;-84
2021/08/10 02:43:21;;;;;;;4.78;1.00;;;19.20;95.20;;;;;;5067500;28;20412;-84
2021/08/10 02:45:52;;;;;;;4.20;1.10;;;19.10;95.50;;;;;;5065265;28;20403;-84
2021/08/10 02:48:19;;;;;;;4.97;1.00;;;19.20;94.10;;;;;;5090357;28;20361;-84
2021/08/10 02:50:49;;;;;;;2.85;1.08;;;19.20;94.90;;;;;;5107358;27;20396;-84
2021/08/10 02:53:16;;;;;;;3.67;1.40;;;19.10;95.30;;;;;;5069394;28;20386;-84
2021/08/10 02:55:51;;;;;;;3.70;1.30;;;19.10;96.20;;;;;;5072517;28;20394;-84
2021/08/10 02:58:21;;;;;;;2.85;1.00;;;19.10;96.00;;;;;;5071498;28;20424;-84
2021/08/10 03:01:07;;;;;;;6.60;1.20;;;19.20;96.10;;;;;;5074129;28;20390;-84
2021/08/10 03:03:36;;;;;;;5.93;1.30;;;19.30;94.50;;;;;;5075201;28;20508;-85
2021/08/10 03:06:05;;;;;;;3.87;1.30;;;19.40;94.70;;;;;;5069336;28;20384;-84
2021/08/10 03:08:46;;;;;;;3.33;1.20;;;19.40;95.00;;;;;;5083159;28;20405;-84
2021/08/10 03:11:18;;;;;;;4.30;1.10;;;19.40;95.40;;;;;;5074374;28;20402;-85
2021/08/10 03:13:54;;;;;;;3.67;1.40;;;19.40;95.20;;;;;;5060538;28;20495;-83
2021/08/10 03:16:33;;;;;;;3.53;1.20;;;19.20;95.40;;;;;;5076599;28;20398;-84
2021/08/10 03:19:04;;;;;;;5.05;1.38;;;19.20;94.30;;;;;;5076819;28;20409;-84
2021/08/10 03:21:36;;;;;;;5.22;1.30;;;19.20;95.80;;;;;;5074859;28;20394;-83
2021/08/10 03:24:07;;;;;;;2.85;1.13;;;19.30;95.20;;;;;;5077532;28;20416;-84
2021/08/10 03:26:36;;;;;;;2.70;1.13;;;19.40;95.10;;;;;;5095207;28;20441;-85
2021/08/10 03:29:03;;;;;;;3.10;1.05;;;19.50;94.40;;;;;;5087213;28;20403;-84
2021/08/10 03:31:41;;;;;;;3.65;1.10;;;19.60;93.90;;;;;;5067413;28;20482;-85
2021/08/10 03:34:09;;;;;;;4.55;1.17;;;19.70;93.20;;;;;;5099809;28;20415;-84
2021/08/10 03:36:36;;;;;;;4.00;1.10;;;19.80;93.00;;;;;;5079278;28;21008;-84
2021/08/10 03:39:06;;;;;;;3.60;1.25;;;19.70;92.80;;;;;;5073505;28;20397;-83
2021/08/10 03:41:38;;;;;;;3.65;1.10;;;19.60;93.00;;;;;;5073440;28;20419;-85
2021/08/10 03:44:07;;;;;;;7.22;1.30;;;19.70;93.20;;;;;;5082654;28;21607;-84
2021/08/10 03:46:34;;;;;;;3.08;0.93;;;19.60;93.70;;;;;;5059741;28;20419;-84
2021/08/10 03:49:02;;;;;;;4.15;1.23;;;19.60;93.50;;;;;;5093306;28;20406;-84
2021/08/10 03:51:31;;;;;;;4.53;1.30;;;19.60;92.90;;;;;;5072552;28;20421;-84
2021/08/10 03:53:59;;;;;;;2.92;1.10;;;19.70;91.90;;;;;;5068072;28;20402;-85
2021/08/10 03:56:28;;;;;;;3.67;1.13;;;19.70;91.60;;;;;;5078601;28;20393;-85
2021/08/10 03:58:57;;;;;;;3.90;1.02;;;19.60;91.90;;;;;;5103773;28;20394;-84
2021/08/10 04:01:26;;;;;;;3.63;1.00;;;19.60;92.00;;;;;;5066414;28;20392;-85
2021/08/10 04:03:56;;;;;;;5.72;1.17;;;19.70;91.70;;;;;;5072639;28;20448;-85
2021/08/10 04:06:28;;;;;;;3.72;1.20;;;19.80;91.20;;;;;;5101398;28;20470;-83
2021/08/10 04:08:55;;;;;;;4.47;1.27;;;19.80;91.10;;;;;;5051745;28;20400;-82
2021/08/10 04:11:23;;;;;;;4.32;1.27;;;19.90;91.90;;;;;;5074092;28;20883;-83
2021/08/10 04:13:53;;;;;;;6.50;1.33;;;19.80;92.30;;;;;;5072453;28;20408;-84
2021/08/10 04:16:22;;;;;;;4.07;1.30;;;19.70;90.40;;;;;;5069064;28;20390;-84
2021/08/10 04:18:50;;;;;;;3.53;1.10;;;19.50;91.20;;;;;;5070357;28;20432;-83
2021/08/10 04:21:23;;;;;;;2.50;0.93;;;19.60;91.10;;;;;;5064302;28;20755;-83
2021/08/10 04:23:53;;;;;;;3.65;1.20;;;19.70;91.00;;;;;;5062127;28;20400;-83
2021/08/10 04:26:22;;;;;;;4.25;1.20;;;19.80;90.70;;;;;;5082720;28;20396;-83
2021/08/10 04:28:53;;;;;;;4.03;0.85;;;19.80;90.40;;;;;;5057116;28;20400;-82
2021/08/10 04:31:20;;;;;;;4.35;1.20;;;19.80;90.20;;;;;;5074884;28;20401;-82
2021/08/10 04:33:47;;;;;;;4.72;1.10;;;19.80;90.60;;;;;;5069806;28;20395;-83
2021/08/10 04:36:14;;;;;;;4.72;1.10;;;19.70;90.90;;;;;;5078425;28;20399;-82
2021/08/10 04:38:41;;;;;;;4.25;1.00;;;19.80;91.00;;;;;;5070453;28;20396;-83
2021/08/10 04:41:08;;;;;;;3.00;1.20;;;19.80;90.90;;;;;;5066815;28;20580;-83
2021/08/10 04:43:38;;;;;;;4.45;1.00;;;19.80;90.60;;;;;;5075244;28;21036;-83
2021/08/10 04:46:11;;;;;;;4.15;1.00;;;19.90;90.50;;;;;;5061968;28;20485;-84
2021/08/10 04:48:44;;;;;;;4.87;1.40;;;20.00;90.80;;;;;;5068625;28;20390;-83
2021/08/10 04:51:13;;;;;;;3.58;1.10;;;20.00;88.60;;;;;;5067971;28;20485;-84
2021/08/10 04:53:43;;;;;;;4.72;1.02;;;19.90;88.60;;;;;;5067790;28;20772;-84
2021/08/10 04:56:12;;;;;;;3.83;1.10;;;19.80;88.70;;;;;;5078578;28;20452;-84
2021/08/10 04:58:40;;;;;;;4.07;0.90;;;19.70;88.20;;;;;;5054304;28;20593;-83
2021/08/10 05:01:07;;;;;;;3.53;1.10;;;19.90;89.40;;;;;;5066354;28;20913;-83
2021/08/10 05:03:34;;;;;;;4.03;1.13;;;19.90;90.40;;;;;;5070356;28;20434;-83
2021/08/10 05:06:04;;;;;;;2.58;1.08;;;19.90;89.60;;;;;;5075852;28;20548;-84
2021/08/10 05:08:37;;;;;;;3.60;1.45;;;19.70;90.20;;;;;;5079145;28;20398;-83
2021/08/10 05:11:11;;;;;;;2.65;1.00;;;19.60;91.10;;;;;;5084613;28;20536;-83
2021/08/10 05:13:39;;;;;;;4.88;1.30;;;19.50;91.50;;;;;;5075138;28;20400;-84
2021/08/10 05:16:07;;;;;;;5.10;1.08;;;19.50;90.90;;;;;;5079140;28;21250;-84
2021/08/10 05:18:34;;;;;;;3.22;1.05;;;19.40;90.70;;;;;;5081412;28;20742;-83
2021/08/10 05:21:04;;;;;;;4.45;1.20;;;19.30;91.40;;;;;;5071856;28;20405;-83
2021/08/10 05:23:38;;;;;;;3.08;1.00;;;19.20;92.10;;;;;;5071769;28;20946;-83
2021/08/10 05:26:05;;;;;;;3.67;1.27;;;19.00;92.40;;;;;;5071799;28;20523;-85
2021/08/10 05:28:32;;;;;;;2.97;1.05;;;18.90;92.00;;;;;;5098158;28;21193;-84
2021/08/10 05:30:59;;;;;;;2.13;0.93;;;18.80;92.10;;;;;;5068897;28;20409;-84
2021/08/10 05:33:26;;;;;;;4.13;1.20;;;18.60;92.80;;;;;;5068678;28;20402;-84
2021/08/10 05:35:55;;;;;;;4.65;1.02;;;18.60;92.80;;;;;;5072222;28;20396;-83
2021/08/10 05:38:23;;;;;;;5.75;1.08;;;18.50;93.10;;;;;;5055132;28;20407;-84
2021/08/10 05:40:53;;;;;;;2.83;0.90;;;18.50;93.30;;;;;;5056641;28;20411;-82
2021/08/10 05:43:20;;;;;;;4.38;0.90;;;18.40;93.70;;;;;;5052318;28;20757;-84
2021/08/10 05:45:47;;;;;;;2.95;0.90;;;18.40;93.60;;;;;;5069160;28;20467;-81
2021/08/10 05:48:16;;;;;;;4.88;1.30;;;18.30;94.40;;;;;;5073257;28;20395;-83
2021/08/10 05:50:46;;;;;;;2.77;1.03;;;18.30;93.60;;;;;;5069319;28;21306;-82
2021/08/10 05:53:15;;;;;;;6.97;1.37;;;18.20;94.10;;;;;;5069318;28;20803;-82
2021/08/10 05:55:46;;;;;;;4.57;1.30;;;18.20;94.30;;;;;;5068540;28;20472;-83
2021/08/10 05:58:15;;;;;;;3.50;1.25;;;18.20;94.40;;;;;;5066499;28;20603;-82
2021/08/10 06:00:46;;;;;;;2.78;1.00;;;18.30;94.30;;;;;;5065656;28;20405;-83
2021/08/10 06:03:16;;;;;;;3.13;1.10;;;18.20;95.00;;;;;;5061514;28;20412;-82
2021/08/10 06:05:45;;;;;;;5.00;1.52;;;18.20;94.70;;;;;;5053114;28;20442;-82
2021/08/10 06:08:12;;;;;;;4.75;1.10;;;18.10;94.30;;;;;;5071406;28;20389;-83
2021/08/10 06:10:40;;;;;;;4.63;1.40;;;18.10;94.50;;;;;;5074838;28;20418;-82
2021/08/10 06:13:24;;;;;;;3.72;1.10;;;18.00;94.30;;;;;;5073358;28;20409;-81
2021/08/10 06:16:07;;;;;;;3.72;1.23;;;18.00;94.90;;;;;;5103382;28;20398;-81
2021/08/10 06:18:34;;;;;;;3.30;1.33;;;17.90;95.50;;;;;;5068376;28;20390;-81
2021/08/10 06:21:05;;;;;;;3.87;1.13;;;18.00;94.40;;;;;;5071189;28;21210;-81
2021/08/10 06:23:39;;;;;;;1.92;1.23;;;18.00;94.40;;;;;;5066417;28;20417;-83
2021/08/10 06:26:10;;;;;;;2.70;1.25;;;18.00;94.60;;;;;;5076740;28;20936;-82
2021/08/10 06:28:49;;;;;;;4.15;1.20;;;18.00;94.90;;;;;;5074212;28;20473;-82
2021/08/10 06:31:20;;;;;;;5.10;1.30;;;18.00;94.80;;;;;;5078885;28;20393;-84
2021/08/10 06:33:47;;;;;;;3.40;1.10;;;18.00;95.20;;;;;;5070786;28;20394;-83
2021/08/10 06:36:15;;;;;;;3.50;1.03;;;17.80;95.10;;;;;;5067419;28;20406;-83
2021/08/10 06:38:46;;;;;;;5.82;1.10;;;17.80;95.30;;;;;;5063632;28;20426;-83
2021/08/10 06:41:18;;;;;;;4.30;1.23;;;17.70;95.40;;;;;;5061833;28;20406;-84
2021/08/10 06:43:45;;;;;;;4.15;1.33;;;17.70;95.70;;;;;;5072300;28;20944;-84
2021/08/10 06:46:13;;;;;;;4.43;1.50;;;17.60;96.30;;;;;;5056624;28;20584;-84
2021/08/10 06:48:40;;;;;;;4.35;1.50;;;17.50;96.30;;;;;;5051856;28;20441;-84
2021/08/10 06:51:09;;;;;;;4.43;1.63;;;17.40;96.30;;;;;;5073842;28;20456;-84
2021/08/10 06:53:37;;;;;;;3.72;1.60;;;17.40;96.60;;;;;;5062704;28;20404;-84
2021/08/10 06:56:04;;;;;;;3.53;1.85;;;17.30;96.90;;;;;;5067550;28;20437;-83
2021/08/10 06:58:35;;;;;;;2.60;1.40;;;17.30;97.00;;;;;;5088976;28;20406;-83
2021/08/10 07:01:03;;;;;;;3.35;1.52;;;17.30;97.20;;;;;;5032781;28;20386;-84
2021/08/10 07:03:32;;;;;;;3.83;2.13;;;17.30;97.70;;;;;;5041534;28;20962;-83
2021/08/10 07:05:59;;;;;;;5.23;2.80;;;17.20;97.70;;;;;;5041982;28;20452;-84
2021/08/10 07:08:26;;;;;;;7.57;3.88;;;17.10;97.60;;;;;;5069895;28;20747;-85
2021/08/10 07:10:59;;;;;;;7.72;4.90;;;17.10;97.90;;;;;;5065509;28;20398;-85
2021/08/10 07:13:32;;;;;;;7.57;4.28;;;17.00;98.00;;;;;;5044341;28;20423;-83
2021/08/10 07:16:06;;;;;;;6.25;4.05;;;17.10;97.90;;;;;;5070631;28;20406;-84
2021/08/10 07:18:37;;;;;;;5.88;3.47;;;17.00;98.40;;;;;;5059754;28;20795;-84
2021/08/10 07:21:06;;;;;;;7.82;3.65;;;16.90;98.50;;;;;;5034657;28;20400;-83
2021/08/10 07:23:33;;;;;;;26.08;4.57;;;16.80;98.80;;;;;;5061333;28;20400;-83
2021/08/10 07:26:00;;;;;;;12.95;3.47;;;16.70;99.30;;;;;;5058102;28;20400;-82
2021/08/10 07:28:27;;;;;;;6.40;2.57;;;16.70;99.70;;;;;;5073032;28;20510;-82
2021/08/10 07:30:54;;;;;;;6.90;2.10;;;16.60;99.50;;;;;;5046599;28;20393;-82
2021/08/10 07:33:21;;;;;;;4.47;2.00;;;16.50;99.70;;;;;;5061760;28;20465;-83
2021/08/10 07:35:48;;;;;;;4.88;1.70;;;16.50;99.80;;;;;;5077671;28;20406;-84
2021/08/10 07:38:15;;;;;;;4.43;2.40;;;16.40;99.90;;;;;;5083892;28;20398;-85
2021/08/10 07:40:42;;;;;;;5.30;2.08;;;16.30;99.90;;;;;;5059723;28;20975;-85
2021/08/10 07:43:09;;;;;;;5.60;1.90;;;16.20;99.90;;;;;;5068574;28;20403;-84
2021/08/10 07:45:39;;;;;;;6.25;1.98;;;16.20;99.90;;;;;;5072616;28;20459;-83
2021/08/10 07:48:08;;;;;;;5.93;2.10;;;16.20;99.90;;;;;;5051353;28;20401;-86
2021/08/10 07:50:37;;;;;;;5.00;1.75;;;16.10;99.90;;;;;;5050894;28;20426;-85
2021/08/10 07:53:04;;;;;;;5.75;1.90;;;16.00;99.90;;;;;;5067874;28;20386;-84
2021/08/10 07:55:31;;;;;;;4.55;1.85;;;16.00;99.90;;;;;;5074173;28;20398;-84
2021/08/10 07:57:58;;;;;;;4.97;1.77;;;15.90;99.90;;;;;;5054411;28;20396;-85
2021/08/10 08:00:25;;;;;;;3.17;1.57;;;15.90;99.90;;;;;;5070928;28;20541;-84
2021/08/10 08:02:52;;;;;;;3.92;1.77;;;15.80;99.90;;;;;;5089011;28;20388;-84
2021/08/10 08:05:19;;;;;;;5.88;1.85;;;15.80;99.90;;;;;;5068045;28;20409;-85
2021/08/10 08:07:46;;;;;;;3.67;1.88;;;15.70;99.90;;;;;;5085866;28;20463;-84
2021/08/10 08:10:15;;;;;;;4.93;2.00;;;15.70;99.90;;;;;;5070869;28;20405;-84
2021/08/10 08:12:42;;;;;;;3.00;1.95;;;15.70;99.90;;;;;;5063336;28;20397;-84
2021/08/10 08:15:09;;;;;;;6.57;2.35;;;15.60;99.90;;;;;;5074301;28;21551;-83
2021/08/10 08:17:36;;;;;;;4.13;2.05;;;15.50;99.90;;;;;;5054326;28;21002;-83
2021/08/10 08:20:05;;;;;;;6.75;2.15;;;15.50;99.90;;;;;;5079257;28;20492;-85
2021/08/10 08:22:32;;;;;;;4.93;2.28;;;15.40;99.90;;;;;;5068134;28;20398;-84
2021/08/10 08:24:59;;;;;;;5.13;2.40;;;15.30;99.90;;;;;;5066618;28;20412;-84
2021/08/10 08:27:27;;;;;;;6.28;2.63;;;15.30;99.90;;;;;;5076013;28;20393;-83
2021/08/10 08:29:54;;;;;;;6.15;2.50;;;15.20;99.90;;;;;;5054434;28;20407;-84
2021/08/10 08:32:28;;;;;;;7.38;2.83;;;15.20;99.90;;;;;;5073115;28;21553;-86
2021/08/10 08:34:57;;;;;;;4.70;2.37;;;15.10;99.90;;;;;;5068658;28;20388;-83
2021/08/10 08:37:39;;;;;;;7.23;2.80;;;15.10;99.90;;;;;;5075105;28;20437;-82
2021/08/10 08:40:07;;;;;;;6.93;3.05;;;15.00;99.90;;;;;;5071056;28;20440;-83
2021/08/10 08:42:34;;;;;;;4.78;2.88;;;14.90;99.90;;;;;;5069812;28;20394;-83
2021/08/10 08:45:05;;;;;;;7.38;2.70;;;14.90;99.90;;;;;;5067070;28;20911;-83
2021/08/10 08:47:32;;;;;;;5.97;3.10;;;14.90;99.90;;;;;;5069379;28;20843;-83
2021/08/10 08:50:01;;;;;;;6.90;2.93;;;14.80;99.90;;;;;;5094523;27;20934;-83
2021/08/10 08:52:30;;;;;;;6.90;3.03;;;14.80;99.90;;;;;;5094446;28;20401;-83
2021/08/10 08:54:59;;;;;;;7.45;3.20;;;14.70;99.90;;;;;;5068296;28;20408;-81
2021/08/10 08:57:28;;;;;;;6.68;3.10;;;14.70;99.90;;;;;;5067827;28;20488;-83
2021/08/10 08:59:57;;;;;;;5.47;2.90;;;14.60;99.90;;;;;;5069070;28;20473;-83
2021/08/10 09:02:23;;;;;;;9.15;3.70;;;14.60;99.90;;;;;;5077470;28;20402;-82
2021/08/10 09:04:50;;;;;;;7.80;4.45;;;14.50;99.90;;;;;;5073634;28;20413;-84
2021/08/10 09:07:20;;;;;;;8.25;4.03;;;14.50;99.90;;;;;;5059040;28;20372;-83
2021/08/10 09:09:48;;;;;;;7.18;4.20;;;14.50;99.90;;;;;;5068568;28;20432;-83
2021/08/10 09:12:17;;;;;;;7.53;3.80;;;14.50;99.90;;;;;;5081144;28;20411;-83
2021/08/10 09:14:49;;;;;;;8.27;3.58;;;14.50;99.90;;;;;;5066104;28;20414;-82
2021/08/10 09:17:21;;;;;;;7.60;3.58;;;14.50;99.90;;;;;;5070878;28;20381;-83
2021/08/10 09:20:01;;;;;;;5.63;3.15;;;14.50;99.90;;;;;;5073250;28;20406;-83
2021/08/10 09:22:34;;;;;;;7.35;3.40;;;14.40;99.90;;;;;;5066207;28;20405;-83
2021/08/10 09:25:04;;;;;;;6.25;3.50;;;14.40;99.90;;;;;;5069449;28;20467;-83
2021/08/10 09:27:39;;;;;;;5.93;3.63;;;14.40;99.90;;;;;;5064573;28;20392;-82
2021/08/10 09:30:15;;;;;;;6.70;3.58;;;14.40;99.90;;;;;;5070439;28;20401;-81
2021/08/10 09:32:56;;;;;;;6.05;3.20;;;14.40;99.90;;;;;;5071025;28;20473;-83
2021/08/10 09:35:25;;;;;;;7.15;3.20;;;14.40;99.90;;;;;;5073270;28;20405;-82
2021/08/10 09:38:09;;;;;;;5.63;3.03;;;14.40;99.90;;;;;;5068676;28;20388;-81
2021/08/10 09:40:42;;;;;;;6.43;2.90;;;14.60;99.90;;;;;;5066550;28;20472;-82
2021/08/10 09:43:24;;;;;;;8.17;3.20;;;14.60;99.90;;;;;;5071967;28;20434;-82
2021/08/10 09:46:22;;;;;;;5.10;2.92;;;14.60;99.90;;;;;;5066763;28;20921;-82
2021/08/10 09:48:49;;;;;;;5.43;2.97;;;14.60;99.90;;;;;;5065159;28;20405;-82
2021/08/10 09:51:30;;;;;;;7.22;3.33;;;14.70;99.90;;;;;;5070926;28;20409;-82
2021/08/10 09:54:05;;;;;;;5.03;3.00;;;14.70;99.90;;;;;;5066111;28;20398;-82
2021/08/10 09:56:55;;;;;;;6.30;3.30;;;14.80;99.90;;;;;;5067614;28;22123;-83
2021/08/10 09:59:29;;;;;;;5.20;3.20;;;14.90;99.90;;;;;;5070134;28;20405;-83
2021/08/10 10:02:01;;;;;;;5.70;3.00;;;14.80;99.90;;;;;;5068409;28;20417;-82
2021/08/10 10:04:32;;;;;;;5.93;3.10;;;14.80;99.90;;;;;;5068153;28;20476;-83
2021/08/10 10:07:10;;;;;;;8.23;3.00;;;14.70;99.90;;;;;;5096031;27;20386;-82
2021/08/10 10:09:38;;;;;;;5.18;2.60;;;14.70;99.90;;;;;;5072890;28;20481;-83
2021/08/10 10:12:07;;;;;;;7.68;2.47;;;14.60;99.90;;;;;;5067781;28;20892;-85
2021/08/10 10:14:34;;;;;;;7.40;2.63;;;14.70;99.90;;;;;;5068141;28;20393;-82
2021/08/10 10:17:04;;;;;;;6.15;2.53;;;14.70;99.90;;;;;;5072869;28;20558;-82
2021/08/10 10:19:36;;;;;;;5.47;2.88;;;14.60;99.90;;;;;;5069809;28;20894;-82
2021/08/10 10:22:04;;;;;;;11.33;5.67;;;14.50;99.90;;;;;;5066570;28;20404;-84
2021/08/10 10:24:39;;;;;;;7.72;4.85;;;14.20;99.90;;;;;;5066971;28;20584;-81
2021/08/10 10:27:08;;;;;;;6.43;3.35;;;14.00;99.90;;;;;;5064145;28;20457;-82
2021/08/10 10:29:35;;;;;;;4.43;2.28;;;13.90;99.90;;;;;;5075032;28;20378;-82
2021/08/10 10:32:02;;;;;;;3.07;2.10;;;13.80;99.90;;;;;;5069531;28;20900;-82
2021/08/10 10:34:30;;;;;;;4.50;2.53;;;13.90;99.90;;;;;;5071058;28;20879;-82
2021/08/10 10:36:59;;;;;;;5.53;2.22;;;14.00;99.90;;;;;;5071265;28;20390;-82
2021/08/10 10:39:29;;;;;;;5.05;2.20;;;14.00;99.90;;;;;;5070387;28;20385;-84
2021/08/10 10:41:59;;;;;;;5.03;2.45;;;14.00;99.90;;;;;;5068833;28;20381;-82
2021/08/10 10:44:52;;;;;;;5.90;2.80;;;13.90;99.90;;;;;;5073395;28;20404;-80
2021/08/10 10:47:27;;;;;;;10.55;2.60;;;13.80;99.90;;;;;;5056527;28;20401;-81
2021/08/10 10:50:02;;;;;;;8.32;2.55;;;13.80;99.90;;;;;;5069855;28;20866;-82
2021/08/10 10:52:31;;;;;;;5.78;2.35;;;13.70;99.90;;;;;;5083246;28;20792;-82
2021/08/10 10:54:59;;;;;;;5.70;2.35;;;13.70;99.90;;;;;;5071622;28;20451;-82
2021/08/10 10:57:32;;;;;;;7.28;2.45;;;13.70;99.90;;;;;;5075429;28;20399;-84
2021/08/10 11:00:07;;;;;;;6.45;2.53;;;13.60;99.90;;;;;;5076656;28;20388;-79
2021/08/10 11:02:38;;;;;;;5.33;2.33;;;13.60;99.90;;;;;;5080698;28;20398;-78
2021/08/10 11:05:14;;;;;;;5.70;2.13;;;13.50;99.90;;;;;;5080333;28;20424;-79
2021/08/10 11:07:43;;;;;;;6.38;2.42;;;13.50;99.90;;;;;;5068945;28;20398;-79
2021/08/10 11:10:11;;;;;;;4.82;2.50;;;13.50;99.90;;;;;;5069486;28;20378;-79
2021/08/10 11:12:44;;;;;;;6.97;2.50;;;13.40;99.90;;;;;;5077256;28;20424;-79
2021/08/10 11:15:19;;;;;;;9.07;2.72;;;13.40;99.90;;;;;;5069283;28;20468;-80
2021/08/10 11:18:07;;;;;;;6.35;2.63;;;13.30;99.90;;;;;;5074773;28;20743;-79
2021/08/10 11:20:39;;;;;;;4.63;2.47;;;13.30;99.90;;;;;;5068006;28;20386;-78
2021/08/10 11:23:22;;;;;;;8.38;2.95;;;13.20;99.90;;;;;;5069603;28;20747;-78
2021/08/10 11:26:11;;;;;;;6.60;3.00;;;13.20;99.90;;;;;;5049728;28;20746;-79
2021/08/10 11:28:46;;;;;;;8.77;2.83;;;13.20;99.90;;;;;;5044088;28;20480;-81
2021/08/10 11:31:30;;;;;;;6.47;3.08;;;13.20;99.90;;;;;;5069464;28;20868;-80
2021/08/10 11:33:57;;;;;;;7.70;3.03;;;13.30;99.90;;;;;;5062883;28;20394;-81
2021/08/10 11:36:25;;;;;;;7.55;3.20;;;13.20;99.90;;;;;;5071261;28;20419;-81
2021/08/10 11:38:55;;;;;;;9.47;3.20;;;13.20;99.90;;;;;;5056312;28;20473;-81
2021/08/10 11:41:28;;;;;;;7.07;3.47;;;13.20;99.90;;;;;;5072668;28;20396;-81
2021/08/10 11:43:57;;;;;;;10.68;2.97;;;13.20;99.90;;;;;;5072870;28;20421;-81
2021/08/10 11:46:34;;;;;;;6.28;2.95;;;13.10;99.90;;;;;;5073476;28;20421;-82
2021/08/10 11:49:09;;;;;;;8.93;3.05;;;13.10;99.90;;;;;;5064315;28;20408;-82
2021/08/10 11:51:39;;;;;;;9.20;3.22;;;13.00;99.90;;;;;;5065473;28;20509;-81
2021/08/10 11:54:11;;;;;;;8.55;3.10;;;13.00;99.90;;;;;;5068039;28;20753;-80
2021/08/10 11:56:44;;;;;;;9.20;3.17;;;12.90;99.90;;;;;;5083951;28;20391;-80
2021/08/10 11:59:38;;;;;;;10.68;3.45;;;12.80;99.90;;;;;;5062552;28;20420;-79
2021/08/10 12:02:05;;;;;;;7.90;2.97;;;12.80;99.90;;;;;;5063297;28;20461;-80
2021/08/10 12:04:38;;;;;;;8.07;3.30;;;12.80;99.90;;;;;;5067089;28;20485;-79
2021/08/10 12:07:08;;;;;;;5.55;3.00;;;12.70;99.90;;;;;;5057137;28;20519;-80
2021/08/10 12:09:38;;;;;;;5.70;3.00;;;12.70;99.90;;;;;;5062003;28;20440;-80
2021/08/10 12:12:07;;;;;;;7.32;3.08;;;12.60;99.90;;;;;;5067341;28;20402;-80
2021/08/10 12:14:34;;;;;;;8.68;2.95;;;12.60;99.90;;;;;;5065448;28;21007;-80
2021/08/10 12:17:09;;;;;;;8.90;2.90;;;12.70;99.90;;;;;;5067840;28;20400;-80
2021/08/10 12:19:38;;;;;;;7.75;3.22;;;12.70;99.90;;;;;;5069348;28;20431;-81
2021/08/10 12:22:09;;;;;;;7.63;3.00;;;12.70;99.90;;;;;;5067983;28;20389;-80
2021/08/10 12:24:39;;;;;;;7.90;2.53;;;12.80;99.90;;;;;;5067265;28;20436;-80
2021/08/10 12:27:08;;;;;;;7.18;2.67;;;12.80;99.90;;;;;;5069461;28;20389;-81
2021/08/10 12:29:40;;;;;;;6.05;2.80;;;12.80;99.90;;;;;;5072975;28;20398;-81
2021/08/10 12:32:09;;;;;;;6.65;3.05;;;12.90;99.90;;;;;;5073559;28;20464;-80
2021/08/10 12:34:44;;;;;;;4.87;3.00;;;12.80;99.90;;;;;;5074927;28;20404;-80
2021/08/10 12:37:11;;;;;;;6.40;2.60;;;12.60;99.90;;;;;;5073315;28;20407;-80
2021/08/10 12:39:45;;;;;;;5.38;2.50;;;12.60;99.90;;;;;;5065104;28;20402;-80
2021/08/10 12:42:12;;;;;;;5.25;2.70;;;12.50;99.90;;;;;;5065749;28;20782;-81
2021/08/10 12:44:41;;;;;;;8.63;2.80;;;12.50;99.90;;;;;;5067892;28;20478;-81
2021/08/10 12:47:09;;;;;;;10.32;2.85;;;12.40;99.90;;;;;;5067640;28;20471;-81
2021/08/10 12:49:41;;;;;;;5.60;2.30;;;12.40;99.90;;;;;;5065378;28;20454;-81
2021/08/10 12:52:13;;;;;;;6.20;2.33;;;12.40;99.90;;;;;;5065368;28;20752;-81
2021/08/10 12:54:55;;;;;;;4.22;2.20;;;12.60;99.90;;;;;;5074439;28;20384;-81
2021/08/10 12:57:24;;;;;;;4.97;2.33;;;12.70;99.90;;;;;;5069821;28;20794;-79
2021/08/10 12:59:55;;;;;;;7.57;2.20;;;12.80;99.90;;;;;;5070170;28;20698;-81
2021/08/10 13:02:42;;;;;;;5.72;2.47;;;12.80;99.90;;;;;;5063658;28;20394;-79
2021/08/10 13:05:18;;;;;;;7.72;2.28;;;12.80;99.90;;;;;;5064357;28;21197;-79